Time;durP1;ratioP1;P1;durP2;ratioP2;P2;SDS_P1;SDS_P2;PMS_P1;PMS_P2;Temp;Humidity;BMP_temperature;BMP_pressure;BME280_temperature;BME280_humidity;BME280_pressure;Samples;Min_cycle;Max_cycle;Signal;HPM_P1;HPM_P2
2021/03/26 00:01:18;;;;;;;10.77;8.75;;;;;;;6.72;62.54;96985.31;5074084;28;20464;-72
2021/03/26 00:03:49;;;;;;;13.43;9.50;;;;;;;6.67;62.14;96979.81;5073624;28;20040;-72
2021/03/26 00:06:20;;;;;;;9.82;8.80;;;;;;;6.62;62.27;96984.78;5074222;28;20044;-72
2021/03/26 00:08:46;;;;;;;11.77;8.90;;;;;;;6.56;62.13;96986.28;5073896;28;20036;-72
2021/03/26 00:11:14;;;;;;;10.93;9.07;;;;;;;6.50;62.45;96987.78;5073030;28;20416;-72
2021/03/26 00:13:41;;;;;;;11.48;8.23;;;;;;;6.46;62.43;96991.75;5073611;28;20403;-72
2021/03/26 00:16:10;;;;;;;11.68;9.55;;;;;;;6.44;62.24;96995.53;5073220;28;20040;-72
2021/03/26 00:18:37;;;;;;;10.68;8.75;;;;;;;6.40;62.69;96989.84;5073825;28;20366;-72
2021/03/26 00:21:05;;;;;;;13.02;8.35;;;;;;;6.38;62.54;96988.41;5073354;28;20083;-72
2021/03/26 00:23:31;;;;;;;9.60;7.90;;;;;;;6.34;62.63;96985.38;5073705;28;20040;-72
2021/03/26 00:25:58;;;;;;;9.27;8.27;;;;;;;6.27;62.80;96985.25;5074070;28;20037;-72
2021/03/26 00:28:24;;;;;;;12.23;8.48;;;;;;;6.21;62.64;96979.94;5073791;28;20122;-72
2021/03/26 00:30:51;;;;;;;11.18;8.98;;;;;;;6.16;62.63;96985.69;5073516;28;20051;-72
2021/03/26 00:33:17;;;;;;;9.38;8.40;;;;;;;6.13;62.90;96983.41;5073737;28;20396;-72
2021/03/26 00:35:43;;;;;;;12.27;8.77;;;;;;;6.10;62.88;96981.97;5073682;28;20033;-72
2021/03/26 00:38:10;;;;;;;10.88;8.07;;;;;;;6.08;63.08;96980.53;5073550;28;20040;-72
2021/03/26 00:40:36;;;;;;;13.07;8.73;;;;;;;6.05;63.18;96973.91;5073669;28;20048;-72
2021/03/26 00:43:02;;;;;;;10.80;9.45;;;;;;;6.03;63.30;96973.28;5073235;28;20392;-72
2021/03/26 00:45:32;;;;;;;10.35;8.40;;;;;;;6.00;63.53;96973.59;5073432;28;20052;-72
2021/03/26 00:47:59;;;;;;;13.75;9.70;;;;;;;5.99;63.43;96971.19;5073813;28;20041;-72
2021/03/26 00:50:34;;;;;;;9.85;8.85;;;;;;;5.97;63.80;96980.97;5073566;28;20035;-72
2021/03/26 00:53:03;;;;;;;10.52;9.02;;;;;;;5.93;63.74;96962.25;5073621;28;20041;-72
2021/03/26 00:55:29;;;;;;;9.90;7.95;;;;;;;5.90;63.81;96975.63;5073307;28;20048;-72
2021/03/26 00:57:55;;;;;;;10.38;8.43;;;;;;;5.86;63.68;96964.75;5073162;28;20492;-72
2021/03/26 01:00:24;;;;;;;9.10;7.55;;;;;;;5.85;63.72;96970.94;5073765;28;20032;-72
2021/03/26 01:02:51;;;;;;;10.43;8.13;;;;;;;5.84;63.85;96968.53;5073338;28;20044;-72
2021/03/26 01:05:22;;;;;;;10.35;8.45;;;;;;;5.82;64.24;96963.47;5073191;28;20457;-72
2021/03/26 01:07:49;;;;;;;9.70;7.85;;;;;;;5.82;63.94;96960.88;5073498;28;20048;-72
2021/03/26 01:10:18;;;;;;;10.68;8.50;;;;;;;5.84;64.04;96953.72;5072897;28;20049;-72
2021/03/26 01:12:44;;;;;;;16.52;8.70;;;;;;;5.84;64.12;96958.91;5072964;28;20028;-72
2021/03/26 01:15:12;;;;;;;11.90;8.20;;;;;;;5.86;64.37;96963.97;5073657;28;20051;-72
2021/03/26 01:17:39;;;;;;;11.27;8.70;;;;;;;5.87;64.51;96953.34;5072815;28;20489;-72
2021/03/26 01:20:13;;;;;;;9.65;8.65;;;;;;;5.88;64.51;96949.78;5073351;28;20040;-72
2021/03/26 01:22:40;;;;;;;12.15;8.27;;;;;;;5.88;64.54;96939.34;5073204;28;20041;-72
2021/03/26 01:25:13;;;;;;;11.95;8.13;;;;;;;5.88;64.99;96941.97;5072922;28;20036;-72
2021/03/26 01:27:39;;;;;;;13.98;9.27;;;;;;;5.86;64.60;96928.31;5077078;28;20495;-72
2021/03/26 01:30:09;;;;;;;11.35;8.15;;;;;;;5.88;65.16;96935.97;5077604;28;20374;-72
2021/03/26 01:32:36;;;;;;;9.35;8.15;;;;;;;5.86;64.81;96933.53;5076824;28;20028;-72
2021/03/26 01:35:04;;;;;;;11.32;8.65;;;;;;;5.87;65.01;96942.13;5077107;28;20495;-72
2021/03/26 01:37:30;;;;;;;10.18;8.00;;;;;;;5.87;64.88;96940.34;5076954;28;20048;-72
2021/03/26 01:39:56;;;;;;;14.05;9.98;;;;;;;5.90;65.41;96947.00;5076859;28;20045;-72
2021/03/26 01:42:31;;;;;;;11.25;9.15;;;;;;;5.88;65.83;96941.16;5075557;28;20465;-72
2021/03/26 01:44:59;;;;;;;12.77;9.70;;;;;;;5.87;65.55;96934.31;5077168;28;20036;-72
2021/03/26 01:47:27;;;;;;;10.93;8.82;;;;;;;5.87;65.77;96937.72;5076786;28;20492;-72
2021/03/26 01:49:54;;;;;;;12.48;10.15;;;;;;;5.89;65.50;96929.75;5076762;28;20036;-72
2021/03/26 01:52:21;;;;;;;11.75;9.73;;;;;;;5.87;65.76;96926.50;5076626;28;20041;-72
2021/03/26 01:54:47;;;;;;;11.52;9.15;;;;;;;5.87;65.72;96929.91;5076428;28;20048;-73
2021/03/26 01:57:14;;;;;;;10.60;9.40;;;;;;;5.87;66.12;96934.31;5076749;28;20032;-72
2021/03/26 01:59:41;;;;;;;10.50;9.07;;;;;;;5.87;66.21;96940.34;5076541;28;20036;-72
2021/03/26 02:02:13;;;;;;;11.98;9.57;;;;;;;5.88;66.46;96941.16;5076633;28;20036;-72
2021/03/26 02:04:43;;;;;;;13.43;9.38;;;;;;;5.88;66.44;96938.56;5065572;28;20041;-72
2021/03/26 02:07:10;;;;;;;17.13;9.52;;;;;;;5.88;66.14;96939.34;5076237;28;20142;-73
2021/03/26 02:09:39;;;;;;;10.60;9.50;;;;;;;5.87;66.63;96932.53;5076707;28;20041;-72
2021/03/26 02:12:15;;;;;;;13.07;9.05;;;;;;;5.86;66.74;96930.91;5075719;28;20472;-72
2021/03/26 02:14:46;;;;;;;10.93;9.15;;;;;;;5.85;66.57;96928.47;5076235;28;20031;-73
2021/03/26 02:17:21;;;;;;;10.43;8.88;;;;;;;5.87;66.98;96929.13;5076332;28;20377;-72
2021/03/26 02:20:27;;;;;;;12.32;9.68;;;;;;;5.87;67.33;96922.09;5076561;28;20037;-73
2021/03/26 02:22:58;;;;;;;12.77;9.60;;;;;;;5.87;66.99;96927.31;5060218;28;20519;-73
2021/03/26 02:25:25;;;;;;;13.68;10.93;;;;;;;5.86;66.92;96925.72;5075825;28;20041;-73
2021/03/26 02:27:51;;;;;;;13.95;10.85;;;;;;;5.87;66.80;96931.72;5075830;28;20052;-72
2021/03/26 02:30:21;;;;;;;11.55;9.75;;;;;;;5.87;66.91;96929.91;5075927;28;20056;-72
2021/03/26 02:32:48;;;;;;;14.57;10.23;;;;;;;5.86;67.02;96925.72;5075785;28;20040;-73
2021/03/26 02:35:26;;;;;;;11.38;10.18;;;;;;;5.87;67.27;96926.50;5075909;28;20401;-72
2021/03/26 02:38:07;;;;;;;12.50;9.82;;;;;;;5.87;67.44;96932.53;5075069;28;20047;-73
2021/03/26 02:40:41;;;;;;;13.77;9.75;;;;;;;5.86;67.24;96927.50;5076209;28;20040;-72
2021/03/26 02:43:32;;;;;;;14.55;10.73;;;;;;;5.86;67.55;96925.72;5076039;28;20048;-72
2021/03/26 02:46:05;;;;;;;14.55;10.25;;;;;;;5.85;67.44;96925.88;5065957;28;20036;-72
2021/03/26 02:48:42;;;;;;;15.45;10.48;;;;;;;5.83;67.39;96920.03;5075355;28;20031;-73
2021/03/26 02:51:15;;;;;;;13.23;11.30;;;;;;;5.80;67.15;96916.00;5066464;28;20370;-73
2021/03/26 02:54:08;;;;;;;13.02;10.27;;;;;;;5.80;67.85;96915.19;5076130;28;20040;-72
2021/03/26 02:56:46;;;;;;;13.68;10.35;;;;;;;5.77;67.73;96916.34;5073806;28;20037;-73
2021/03/26 02:59:43;;;;;;;13.70;10.23;;;;;;;5.74;68.12;96913.31;5075668;28;20032;-72
2021/03/26 03:02:23;;;;;;;14.40;10.95;;;;;;;5.71;67.44;96904.03;5069207;28;20044;-73
2021/03/26 03:05:05;;;;;;;15.23;10.65;;;;;;;5.70;67.76;96916.22;5074467;28;20049;-73
2021/03/26 03:07:35;;;;;;;17.25;10.98;;;;;;;5.68;67.56;96910.41;5075190;28;20366;-73
2021/03/26 03:10:20;;;;;;;16.55;11.20;;;;;;;5.69;67.99;96908.59;5075520;28;20040;-73
2021/03/26 03:12:48;;;;;;;12.50;9.70;;;;;;;5.67;67.52;96908.78;5075120;28;20036;-73
2021/03/26 03:15:21;;;;;;;11.73;10.30;;;;;;;5.65;67.90;96902.97;5073721;28;20044;-72
2021/03/26 03:18:25;;;;;;;12.35;10.07;;;;;;;5.64;68.51;96897.91;5075162;28;20060;-73
2021/03/26 03:21:13;;;;;;;11.68;9.70;;;;;;;5.60;68.38;96902.66;5075111;28;20043;-72
2021/03/26 03:23:44;;;;;;;11.32;9.57;;;;;;;5.58;67.75;96901.22;5075049;28;20047;-73
2021/03/26 03:26:19;;;;;;;13.25;10.60;;;;;;;5.56;68.24;96901.38;5074583;28;20033;-73
2021/03/26 03:29:01;;;;;;;11.82;9.63;;;;;;;5.55;68.29;96893.78;5075343;28;20044;-72
2021/03/26 03:31:47;;;;;;;13.50;9.80;;;;;;;5.53;68.58;96896.53;5075186;28;20064;-73
2021/03/26 03:34:35;;;;;;;12.45;9.70;;;;;;;5.49;68.31;96890.88;5074485;28;20051;-73
2021/03/26 03:37:08;;;;;;;11.20;9.98;;;;;;;5.49;68.34;96895.28;5074487;28;20079;-73
2021/03/26 03:39:46;;;;;;;13.57;9.65;;;;;;;5.47;68.47;96899.84;5074672;28;20385;-73
2021/03/26 03:42:25;;;;;;;10.85;9.43;;;;;;;5.45;68.65;96889.59;5074870;28;20037;-72
2021/03/26 03:45:24;;;;;;;10.55;9.27;;;;;;;5.45;68.87;96889.59;5074248;28;20028;-72
2021/03/26 03:48:03;;;;;;;12.07;9.60;;;;;;;5.45;68.75;96900.00;5060436;28;20059;-73
2021/03/26 03:51:03;;;;;;;11.95;10.50;;;;;;;5.43;68.93;96888.16;5073649;28;20040;-72
2021/03/26 03:53:44;;;;;;;12.27;9.88;;;;;;;5.40;69.10;96891.13;5072560;28;20041;-73
2021/03/26 03:56:41;;;;;;;14.32;10.45;;;;;;;5.37;69.18;96894.84;5074798;28;20052;-73
2021/03/26 03:59:32;;;;;;;13.23;10.38;;;;;;;5.40;69.58;96898.94;5065896;28;20055;-72
2021/03/26 04:02:04;;;;;;;13.45;10.45;;;;;;;5.42;68.99;96892.56;5074121;28;20154;-72
2021/03/26 04:04:41;;;;;;;12.68;9.85;;;;;;;5.43;69.47;96896.78;5074103;28;20040;-72
2021/03/26 04:07:13;;;;;;;15.80;11.30;;;;;;;5.47;69.19;96889.44;5074191;28;20043;-73
2021/03/26 04:09:50;;;;;;;14.48;10.95;;;;;;;5.48;69.68;96897.06;5074292;28;20043;-73
2021/03/26 04:12:22;;;;;;;13.98;10.18;;;;;;;5.51;69.12;96895.09;5074171;28;20032;-72
2021/03/26 04:15:01;;;;;;;14.13;11.23;;;;;;;5.52;69.69;96892.31;5074080;28;20040;-72
2021/03/26 04:17:43;;;;;;;17.67;11.63;;;;;;;5.52;69.66;96894.91;5074166;28;20483;-73
2021/03/26 04:20:17;;;;;;;14.68;10.45;;;;;;;5.52;69.48;96891.50;5066941;28;20048;-72
2021/03/26 04:22:50;;;;;;;13.90;11.40;;;;;;;5.51;69.09;96893.31;5073713;28;20028;-73
2021/03/26 04:25:23;;;;;;;14.47;11.30;;;;;;;5.52;69.15;96889.72;5074229;28;20045;-72
2021/03/26 04:28:00;;;;;;;18.17;11.27;;;;;;;5.53;69.40;96899.16;5060536;28;20032;-73
2021/03/26 04:30:35;;;;;;;15.88;10.90;;;;;;;5.51;69.44;96893.31;5073736;28;20044;-73
2021/03/26 04:33:02;;;;;;;16.30;11.70;;;;;;;5.51;69.04;96884.69;5063316;28;20040;-73
2021/03/26 04:35:29;;;;;;;15.07;11.45;;;;;;;5.51;69.25;96880.31;5073333;28;20033;-72
2021/03/26 04:38:27;;;;;;;15.40;11.48;;;;;;;5.52;70.00;96878.50;5072884;28;20071;-73
2021/03/26 04:41:10;;;;;;;14.95;10.77;;;;;;;5.49;69.83;96880.47;5063614;28;20048;-72
2021/03/26 04:43:45;;;;;;;14.73;11.43;;;;;;;5.49;69.82;96877.88;5059048;28;20033;-72
2021/03/26 04:46:25;;;;;;;14.45;12.38;;;;;;;5.50;69.50;96876.06;5073360;28;20037;-73
2021/03/26 04:49:05;;;;;;;14.57;11.27;;;;;;;5.51;69.76;96887.31;5072865;28;20039;-72
2021/03/26 04:51:55;;;;;;;15.07;11.27;;;;;;;5.50;69.49;96873.47;5073397;28;20401;-73
2021/03/26 04:54:41;;;;;;;14.57;11.10;;;;;;;5.48;69.91;96875.44;5065352;28;20033;-72
2021/03/26 04:57:15;;;;;;;15.27;11.18;;;;;;;5.46;69.52;96867.81;5073708;28;20029;-72
2021/03/26 04:59:49;;;;;;;11.65;10.45;;;;;;;5.46;69.62;96865.22;5073072;28;20055;-72
2021/03/26 05:02:19;;;;;;;12.63;10.50;;;;;;;5.46;69.48;96861.81;5072385;28;20032;-72
2021/03/26 05:04:46;;;;;;;15.43;11.18;;;;;;;5.43;69.43;96864.75;5073113;28;20043;-73
2021/03/26 05:07:21;;;;;;;16.00;11.60;;;;;;;5.39;69.37;96864.28;5073688;28;20039;-72
2021/03/26 05:09:52;;;;;;;14.68;11.50;;;;;;;5.35;69.60;96863.00;5073184;28;20044;-73
2021/03/26 05:12:30;;;;;;;14.38;11.88;;;;;;;5.32;69.64;96867.78;5073183;28;20400;-72
2021/03/26 05:15:09;;;;;;;12.88;10.93;;;;;;;5.29;69.80;96867.16;5073614;28;20059;-72
2021/03/26 05:17:43;;;;;;;13.55;10.95;;;;;;;5.27;69.69;96876.06;5072824;28;20391;-73
2021/03/26 05:20:33;;;;;;;15.48;11.27;;;;;;;5.24;69.70;96871.22;5073426;28;20040;-72
2021/03/26 05:23:06;;;;;;;14.93;10.32;;;;;;;5.21;69.70;96874.19;5067476;28;20050;-72
2021/03/26 05:25:46;;;;;;;13.32;10.65;;;;;;;5.12;69.55;96873.41;5073069;28;20028;-73
2021/03/26 05:28:16;;;;;;;13.45;10.38;;;;;;;5.07;69.67;96870.53;5073076;28;20044;-73
2021/03/26 05:30:45;;;;;;;13.40;10.02;;;;;;;5.05;69.70;96869.91;5072974;28;20377;-72
2021/03/26 05:33:20;;;;;;;15.98;10.63;;;;;;;5.06;69.71;96874.09;5073122;28;20036;-72
2021/03/26 05:35:52;;;;;;;15.15;10.50;;;;;;;5.06;69.76;96869.75;5073053;28;20462;-73
2021/03/26 05:38:42;;;;;;;11.85;10.00;;;;;;;5.06;69.82;96874.94;5073194;28;20033;-72
2021/03/26 05:41:33;;;;;;;14.32;10.25;;;;;;;5.06;69.59;96871.50;5066084;28;20483;-72
2021/03/26 05:44:11;;;;;;;14.27;10.80;;;;;;;5.07;69.93;96878.34;5071773;28;20036;-73
2021/03/26 05:46:52;;;;;;;14.23;10.60;;;;;;;5.11;69.86;96877.00;5072427;28;20059;-73
2021/03/26 05:50:03;;;;;;;14.20;10.85;;;;;;;5.21;69.79;96872.41;5072939;28;20473;-73
2021/03/26 05:52:48;;;;;;;14.35;10.05;;;;;;;5.45;69.71;96876.59;5073209;28;20392;-73
2021/03/26 05:55:37;;;;;;;15.18;10.23;;;;;;;5.88;68.92;96878.69;5072818;28;20040;-73
2021/03/26 05:58:15;;;;;;;12.10;10.45;;;;;;;6.27;68.84;96885.47;5072852;28;20055;-73
2021/03/26 06:01:22;;;;;;;10.60;9.38;;;;;;;6.72;67.51;96881.06;5072948;28;20051;-73
2021/03/26 06:03:48;;;;;;;15.63;10.60;;;;;;;7.15;68.33;96888.94;5072672;28;20056;-73
2021/03/26 06:06:58;;;;;;;10.63;9.52;;;;;;;7.60;65.39;96880.91;5072886;28;20483;-73
2021/03/26 06:09:49;;;;;;;14.95;9.93;;;;;;;7.98;65.54;96888.44;5063958;28;20060;-73
2021/03/26 06:12:22;;;;;;;14.73;10.25;;;;;;;8.36;64.51;96883.66;5072558;28;20392;-73
2021/03/26 06:15:22;;;;;;;12.40;10.23;;;;;;;8.71;62.90;96875.81;5076420;28;20396;-73
2021/03/26 06:18:05;;;;;;;12.05;10.63;;;;;;;9.02;64.71;96883.16;5076060;28;20774;-73
2021/03/26 06:21:01;;;;;;;12.88;10.25;;;;;;;9.35;61.51;96866.72;5076134;28;20057;-73
2021/03/26 06:23:48;;;;;;;11.50;9.95;;;;;;;9.59;62.38;96885.47;5076043;28;20381;-73
2021/03/26 06:26:35;;;;;;;13.70;10.40;;;;;;;9.74;59.51;96858.09;5076353;28;20388;-73
2021/03/26 06:29:20;;;;;;;14.25;10.02;;;;;;;9.81;58.32;96852.84;5065741;28;20107;-73
2021/03/26 06:32:08;;;;;;;14.85;10.52;;;;;;;9.79;58.67;96849.63;5068449;28;20465;-73
2021/03/26 06:34:39;;;;;;;12.57;11.23;;;;;;;9.45;59.76;96872.38;5075910;28;20032;-73
2021/03/26 06:37:35;;;;;;;12.48;10.10;;;;;;;8.80;59.43;96861.56;5075783;28;20386;-73
2021/03/26 06:40:39;;;;;;;11.40;10.05;;;;;;;8.31;60.41;96865.94;5069763;28;20044;-73
2021/03/26 06:43:05;;;;;;;11.32;10.13;;;;;;;8.03;61.73;96880.84;5075696;28;20027;-73
2021/03/26 06:45:50;;;;;;;14.63;10.75;;;;;;;7.99;62.25;96879.63;5075825;28;20028;-73
2021/03/26 06:48:40;;;;;;;13.43;10.55;;;;;;;8.58;61.98;96876.56;5075419;28;20024;-73
2021/03/26 06:51:22;;;;;;;12.63;10.82;;;;;;;9.29;60.93;96875.38;5075611;28;20052;-73
2021/03/26 06:54:25;;;;;;;13.50;10.70;;;;;;;9.57;59.75;96861.31;5069000;28;20029;-73
2021/03/26 06:56:54;;;;;;;14.77;10.73;;;;;;;9.98;59.71;96858.47;5070568;28;20028;-73
2021/03/26 06:59:53;;;;;;;11.95;10.48;;;;;;;10.15;56.69;96830.81;5075445;28;20032;-73
2021/03/26 07:02:44;;;;;;;12.00;9.70;;;;;;;10.30;56.77;96832.44;5075395;28;20052;-73
2021/03/26 07:05:13;;;;;;;14.20;10.05;;;;;;;10.40;58.45;96850.38;5075317;28;20449;-73
2021/03/26 07:08:00;;;;;;;13.02;10.57;;;;;;;10.26;57.84;96847.72;5075044;28;20497;-73
2021/03/26 07:11:00;;;;;;;12.32;10.38;;;;;;;9.92;57.14;96844.38;5075468;28;20354;-73
2021/03/26 07:14:00;;;;;;;13.20;9.85;;;;;;;9.92;57.77;96849.59;5075062;28;20040;-73
2021/03/26 07:16:43;;;;;;;11.93;10.00;;;;;;;10.40;56.94;96832.00;5068523;28;20036;-73
2021/03/26 07:19:29;;;;;;;13.60;10.77;;;;;;;10.68;57.86;96842.19;5065692;28;20049;-73
2021/03/26 07:22:10;;;;;;;12.25;10.38;;;;;;;10.92;55.85;96817.84;5075610;28;20051;-73
2021/03/26 07:25:28;;;;;;;11.93;9.65;;;;;;;11.52;54.75;96804.31;5074601;28;20050;-73
2021/03/26 07:28:12;;;;;;;11.30;9.93;;;;;;;11.99;54.66;96803.94;5074751;28;20404;-73
2021/03/26 07:30:58;;;;;;;12.23;9.77;;;;;;;12.51;53.14;96795.66;5074909;28;20488;-73
2021/03/26 07:33:54;;;;;;;11.45;9.18;;;;;;;13.00;51.66;96772.75;5075067;28;20045;-73
2021/03/26 07:36:27;;;;;;;15.48;9.32;;;;;;;13.35;53.66;96798.38;5055570;28;20059;-73
2021/03/26 07:39:26;;;;;;;11.20;8.50;;;;;;;13.68;49.88;96758.31;5075214;28;20119;-73
2021/03/26 07:42:15;;;;;;;11.73;8.95;;;;;;;13.97;49.56;96756.56;5065359;28;20040;-73
2021/03/26 07:44:44;;;;;;;12.00;9.27;;;;;;;14.19;51.45;96771.78;5059497;28;20032;-73
2021/03/26 07:47:43;;;;;;;10.93;9.35;;;;;;;14.17;47.52;96732.47;5074317;28;20049;-73
2021/03/26 07:50:37;;;;;;;12.07;9.57;;;;;;;14.22;47.14;96729.13;5074140;28;20036;-73
2021/03/26 07:53:11;;;;;;;10.48;9.27;;;;;;;14.17;47.80;96735.09;5061024;28;20035;-73
2021/03/26 07:55:56;;;;;;;11.10;9.50;;;;;;;14.28;49.27;96754.56;5074381;28;20024;-73
2021/03/26 07:59:07;;;;;;;10.25;9.20;;;;;;;14.10;45.64;96730.97;5074526;28;20472;-73
2021/03/26 08:01:49;;;;;;;10.30;9.05;;;;;;;14.09;47.10;96747.81;5074255;28;20032;-73
2021/03/26 08:04:20;;;;;;;10.73;8.70;;;;;;;14.12;48.48;96752.66;5074277;28;20028;-73
2021/03/26 08:06:46;;;;;;;11.60;9.65;;;;;;;14.20;48.72;96763.63;5063434;28;20048;-73
2021/03/26 08:09:35;;;;;;;11.10;8.93;;;;;;;14.44;46.26;96745.09;5074175;28;20032;-73
2021/03/26 08:12:26;;;;;;;13.57;9.45;;;;;;;14.72;46.56;96748.78;5074317;28;20037;-73
2021/03/26 08:15:21;;;;;;;10.38;9.07;;;;;;;15.09;45.72;96746.53;5061879;28;20036;-73
2021/03/26 08:18:27;;;;;;;10.27;9.20;;;;;;;15.17;44.87;96751.44;5073736;28;20048;-73
2021/03/26 08:21:07;;;;;;;11.65;10.05;;;;;;;15.16;44.85;96770.16;5073218;28;20404;-73
2021/03/26 08:23:39;;;;;;;13.13;9.30;;;;;;;15.13;44.63;96786.50;5074030;28;20409;-73
2021/03/26 08:26:48;;;;;;;13.85;10.40;;;;;;;15.27;44.69;96790.44;5073787;28;20388;-73
2021/03/26 08:29:51;;;;;;;10.27;9.27;;;;;;;15.40;44.21;96790.13;5073582;28;20051;-73
2021/03/26 08:32:39;;;;;;;11.10;9.70;;;;;;;15.46;43.67;96791.00;5073648;28;20043;-73
2021/03/26 08:35:12;;;;;;;11.30;9.70;;;;;;;15.71;44.35;96790.59;5072837;28;20040;-73
2021/03/26 08:38:06;;;;;;;13.00;9.93;;;;;;;15.93;43.06;96781.94;5074066;28;20045;-73
2021/03/26 08:40:55;;;;;;;10.97;9.30;;;;;;;16.01;42.67;96779.69;5073645;28;20040;-73
2021/03/26 08:43:23;;;;;;;14.27;10.43;;;;;;;15.98;43.74;96796.03;5064150;28;20048;-73
2021/03/26 08:46:01;;;;;;;9.93;8.93;;;;;;;16.08;42.10;96781.34;5073430;28;20025;-73
2021/03/26 08:48:39;;;;;;;10.60;9.57;;;;;;;16.03;41.64;96790.81;5073906;28;20099;-73
2021/03/26 08:51:17;;;;;;;10.85;9.13;;;;;;;15.73;42.75;96796.47;5073262;28;20040;-73
2021/03/26 08:53:58;;;;;;;12.35;9.55;;;;;;;15.78;42.33;96793.91;5073935;28;20033;-73
2021/03/26 08:56:30;;;;;;;13.13;10.20;;;;;;;15.62;43.07;96800.78;5073669;28;20032;-73
2021/03/26 08:59:02;;;;;;;12.98;10.02;;;;;;;15.49;42.18;96802.94;5073363;28;20032;-73
2021/03/26 09:01:52;;;;;;;12.48;9.57;;;;;;;15.28;42.57;96801.81;5072395;28;20043;-73
2021/03/26 09:04:57;;;;;;;11.25;8.98;;;;;;;15.23;42.55;96805.97;5060314;28;20025;-73
2021/03/26 09:07:47;;;;;;;10.13;9.03;;;;;;;15.30;42.48;96799.72;5063745;28;20488;-73
2021/03/26 09:10:31;;;;;;;9.38;8.50;;;;;;;15.58;42.19;96793.56;5073627;28;20040;-73
2021/03/26 09:13:16;;;;;;;10.48;8.75;;;;;;;15.74;42.88;96795.41;5072491;28;20040;-73
2021/03/26 09:16:02;;;;;;;9.50;8.50;;;;;;;15.72;42.23;96792.22;5073097;28;20488;-73
2021/03/26 09:18:47;;;;;;;10.18;9.07;;;;;;;15.44;42.03;96787.81;5073223;28;20048;-73
2021/03/26 09:21:19;;;;;;;;;;;;;;;15.38;42.03;96794.84;5073633;28;20036;-73
2021/03/26 09:24:18;;;;;;;12.60;10.73;;;;;;;15.44;42.12;96782.53;5073135;28;19912;-73
2021/03/26 09:27:00;;;;;;;11.77;9.45;;;;;;;15.59;42.37;96781.94;5072856;28;20040;-73
2021/03/26 09:29:53;;;;;;;10.30;9.15;;;;;;;15.79;42.50;96790.22;5073519;28;20039;-73
2021/03/26 09:32:44;;;;;;;11.35;9.25;;;;;;;16.06;41.96;96781.59;5073060;28;20040;-73
2021/03/26 09:35:36;;;;;;;11.15;10.05;;;;;;;15.97;41.22;96777.75;5060186;28;20028;-73
2021/03/26 09:38:07;;;;;;;11.30;9.52;;;;;;;15.94;41.93;96789.63;5068079;28;20063;-73
2021/03/26 09:41:05;;;;;;;10.85;9.05;;;;;;;15.89;41.65;96783.47;5072913;28;20033;-73
2021/03/26 09:43:33;;;;;;;10.95;9.85;;;;;;;15.58;41.84;96781.16;5072806;28;20052;-73
2021/03/26 09:46:06;;;;;;;12.40;9.80;;;;;;;15.33;42.42;96780.72;5073024;28;20461;-73
2021/03/26 09:48:57;;;;;;;11.10;9.75;;;;;;;15.40;42.00;96771.63;5077220;28;20040;-73
2021/03/26 09:52:04;;;;;;;12.60;9.85;;;;;;;15.34;42.32;96777.06;5064662;28;20028;-73
2021/03/26 09:54:38;;;;;;;12.35;9.80;;;;;;;15.39;42.35;96772.69;5069325;28;20032;-73
2021/03/26 09:57:25;;;;;;;12.27;10.75;;;;;;;15.44;42.35;96766.66;5076949;28;20024;-73
2021/03/26 10:00:22;;;;;;;12.20;10.00;;;;;;;15.28;42.36;96762.16;5076406;28;20073;-73
2021/03/26 10:03:07;;;;;;;10.02;8.80;;;;;;;15.30;42.71;96765.38;5076637;28;20028;-73
2021/03/26 10:05:43;;;;;;;11.38;9.68;;;;;;;15.49;42.61;96758.78;5076460;28;20028;-73
2021/03/26 10:11:14;;;;;;;10.02;9.02;;;;;;;15.86;41.41;96753.03;5076595;28;20366;-73
2021/03/26 10:14:14;;;;;;;10.55;9.40;;;;;;;15.92;41.84;96746.75;5076548;28;20397;-73
2021/03/26 10:16:54;;;;;;;13.05;10.23;;;;;;;15.95;41.46;96751.56;5062831;28;20067;-73
2021/03/26 10:19:38;;;;;;;12.10;10.00;;;;;;;15.78;41.01;96750.78;5076107;28;20047;-73
2021/03/26 10:22:21;;;;;;;10.40;9.10;;;;;;;15.74;42.13;96747.81;5076312;28;20048;-73
2021/03/26 10:24:58;;;;;;;10.30;9.20;;;;;;;15.88;41.63;96735.06;5076118;28;20036;-73
2021/03/26 10:27:36;;;;;;;11.07;9.27;;;;;;;15.80;41.26;96741.56;5076322;28;20032;-73
2021/03/26 10:30:23;;;;;;;9.60;8.60;;;;;;;15.75;41.76;96741.50;5076276;28;20036;-73
2021/03/26 10:32:51;;;;;;;12.48;9.35;;;;;;;15.96;42.07;96721.44;5076070;28;20040;-73
2021/03/26 10:35:26;;;;;;;10.85;8.32;;;;;;;16.04;41.52;96722.81;5074810;28;20029;-73
2021/03/26 10:37:53;;;;;;;;;;;;;;;16.28;40.86;96717.31;5076690;28;20036;-73
2021/03/26 10:40:44;;;;;;;11.93;8.30;;;;;;;16.33;38.88;96709.41;5075772;28;19908;-73
2021/03/26 10:43:43;;;;;;;10.10;8.32;;;;;;;16.23;40.32;96704.78;5075632;28;20044;-73
2021/03/26 10:46:15;;;;;;;8.82;7.90;;;;;;;16.29;40.72;96709.09;5075163;28;20045;-73
2021/03/26 10:48:48;;;;;;;10.70;6.88;;;;;;;16.33;38.87;96704.91;5075779;28;21434;-73
2021/03/26 10:51:39;;;;;;;8.13;7.30;;;;;;;16.29;39.75;96703.00;5076068;28;20472;-73
2021/03/26 10:54:31;;;;;;;8.48;7.65;;;;;;;16.47;40.43;96704.53;5064095;28;20032;-73
2021/03/26 10:57:13;;;;;;;10.35;7.30;;;;;;;16.95;39.01;96701.06;5058821;28;20047;-73
2021/03/26 10:59:51;;;;;;;9.88;6.63;;;;;;;17.16;38.19;96687.97;5074889;28;20045;-73
2021/03/26 11:02:30;;;;;;;10.55;6.88;;;;;;;17.52;39.05;96683.69;5075184;28;20037;-73
2021/03/26 11:05:07;;;;;;;7.75;6.95;;;;;;;17.73;36.01;96683.81;5074345;28;20032;-73
2021/03/26 11:07:42;;;;;;;7.30;6.60;;;;;;;17.56;37.32;96684.78;5075403;28;20461;-73
2021/03/26 11:10:17;;;;;;;7.53;6.40;;;;;;;17.68;37.46;96675.81;5075902;28;20048;-73
2021/03/26 11:13:00;;;;;;;8.00;6.75;;;;;;;17.87;36.53;96671.72;5074747;28;20051;-73
2021/03/26 11:15:32;;;;;;;6.78;6.15;;;;;;;18.14;36.79;96676.88;5075247;28;20036;-73
2021/03/26 11:18:17;;;;;;;7.82;6.07;;;;;;;18.46;35.99;96665.28;5075353;28;20044;-73
2021/03/26 11:21:10;;;;;;;9.35;6.18;;;;;;;18.70;35.84;96667.44;5075149;28;20048;-73
2021/03/26 11:23:38;;;;;;;6.68;5.75;;;;;;;18.43;36.11;96663.91;5075684;28;20032;-73
2021/03/26 11:26:05;;;;;;;6.85;6.20;;;;;;;18.26;36.11;96668.66;5074885;28;20032;-73
2021/03/26 11:28:56;;;;;;;7.55;6.35;;;;;;;17.87;35.65;96657.63;5075361;28;20032;-73
2021/03/26 11:31:30;;;;;;;7.13;5.78;;;;;;;17.73;35.70;96647.47;5075207;28;20040;-73
2021/03/26 11:34:24;;;;;;;7.13;5.80;;;;;;;17.77;35.51;96650.41;5074787;28;20044;-73
2021/03/26 11:36:50;;;;;;;6.33;5.73;;;;;;;17.74;36.15;96643.75;5074801;28;20044;-73
2021/03/26 11:39:29;;;;;;;8.10;6.43;;;;;;;17.78;35.54;96647.50;5074984;28;20036;-73
2021/03/26 11:42:07;;;;;;;10.38;6.55;;;;;;;18.04;35.65;96647.63;5074492;28;20029;-73
2021/03/26 11:44:51;;;;;;;6.90;6.20;;;;;;;17.77;35.07;96635.28;5075144;28;20032;-73
2021/03/26 11:47:26;;;;;;;8.13;5.95;;;;;;;17.70;36.04;96633.94;5066119;28;20036;-73
2021/03/26 11:50:22;;;;;;;6.90;5.32;;;;;;;17.75;35.29;96626.81;5074932;28;20033;-73
2021/03/26 11:53:09;;;;;;;7.63;6.25;;;;;;;17.70;35.42;96625.97;5070080;28;20037;-73
2021/03/26 11:55:39;;;;;;;7.85;6.28;;;;;;;17.85;35.98;96634.03;5066563;28;20036;-73
2021/03/26 11:58:26;;;;;;;7.25;6.13;;;;;;;17.81;35.34;96630.28;5074457;28;20040;-73
2021/03/26 12:01:03;;;;;;;9.07;7.35;;;;;;;17.70;35.71;96625.97;5074730;28;20458;-73
2021/03/26 12:03:47;;;;;;;6.75;6.05;;;;;;;17.89;36.04;96632.47;5074222;28;20032;-73
2021/03/26 12:06:32;;;;;;;7.90;5.65;;;;;;;18.29;34.76;96616.91;5074532;28;20051;-73
2021/03/26 12:09:13;;;;;;;7.82;5.40;;;;;;;18.41;34.98;96612.13;5063368;28;20051;-73
2021/03/26 12:11:53;;;;;;;10.63;5.65;;;;;;;18.63;34.70;96607.38;5071779;28;20036;-73
2021/03/26 12:14:26;;;;;;;4.88;4.38;;;;;;;18.81;33.37;96607.94;5073897;28;20033;-73
2021/03/26 12:17:04;;;;;;;4.72;4.30;;;;;;;18.91;32.67;96596.50;5073887;28;20095;-73
2021/03/26 12:19:35;;;;;;;7.13;4.75;;;;;;;19.12;34.04;96599.94;5062305;28;20060;-73
2021/03/26 12:22:18;;;;;;;6.68;4.57;;;;;;;19.35;32.96;96588.72;5073794;28;20032;-73
2021/03/26 12:25:01;;;;;;;5.03;4.35;;;;;;;19.36;33.01;96594.81;5073999;28;20052;-73
2021/03/26 12:27:48;;;;;;;5.47;4.53;;;;;;;19.58;32.36;96587.31;5073824;28;20041;-73
2021/03/26 12:30:21;;;;;;;5.90;3.60;;;;;;;19.53;32.09;96584.69;5065131;28;20457;-73